Global Leader — C6SU5 — position and weather

sailwx.info

Track history (hours):
 
Tides and Currents Weather Stations Pressure Air Temp Water Temp Dewpoint Dewpoint Depression Visibility Wind Speed Wind Dir Waves Ship Positions

Global Leader

Last reported at 2018-Feb-21 10:38 UTC. Time now 2018-Feb-21 23:25 UTC.
Position N 38°46' W 074°44'.

Length 189 m; draft 7.9 m.

Type: Cargo ship. MMSI: 311475000.

Date/timePositionNaut miles runAvg speedWind from/ knotsBaromVisibWave heightAir tempDewpointWater temp
2018-Feb-21 10:38N 38°46' W 074°44'1 8.2
2018-Feb-21 10:29N 38°46' W 074°46'9 8.7
2018-Feb-21 09:25N 38°46' W 074°58'12 9.4
2018-Feb-21 08:06N 38°56' W 075°06'317.5
2018-Feb-21 07:54N 38°59' W 075°08'816.5
2018-Feb-21 07:26N 39°06' W 075°12'715.2
2018-Feb-21 07:00N 39°12' W 075°17'612.7
2018-Feb-21 06:31N 39°17' W 075°22'612.1
2018-Feb-21 06:01N 39°22' W 075°27'612.3
2018-Feb-21 05:30N 39°26' W 075°32'611.3
2018-Feb-21 05:01N 39°32' W 075°33'3 6.0
2018-Feb-21 04:31N 39°33' W 075°36'4 8.4
2018-Feb-21 04:00N 39°33' W 075°42'4 8.8
2018-Feb-21 03:31N 39°32' W 075°47'4 8.9
2018-Feb-21 03:01N 39°31' W 075°53'510.0
2018-Feb-21 02:31N 39°28' W 075°58'612.1
2018-Feb-21 02:00N 39°24' W 076°03'815.1
2018-Feb-21 01:30N 39°20' W 076°12'714.1
2018-Feb-21 01:00N 39°13' W 076°15'612.2
2018-Feb-21 00:30N 39°09' W 076°21'713.4
2018-Feb-21 00:00N 39°12' W 076°29'4 8.2
2018-Feb-20 23:30N 39°14' W 076°33'1 1.7
2018-Feb-20 23:00N 39°15' W 076°32'0 0.0
2018-Feb-20 22:30N 39°15' W 076°32'0 0.0
2018-Feb-20 22:00N 39°15' W 076°32'0 0.0
2018-Feb-20 21:30N 39°15' W 076°32'0 0.0
2018-Feb-20 21:00N 39°15' W 076°32'0 0.0
2018-Feb-20 20:30N 39°15' W 076°32'0 0.0
2018-Feb-20 20:00N 39°15' W 076°32'0 0.0
2018-Feb-20 19:30N 39°15' W 076°32'0 0.0
2018-Feb-20 19:00N 39°15' W 076°32'0 0.0
2018-Feb-20 18:30N 39°15' W 076°32'0 0.0
2018-Feb-20 18:00N 39°15' W 076°32'0 0.0
2018-Feb-20 17:30N 39°15' W 076°32'0 0.0
2018-Feb-20 17:00N 39°15' W 076°32'0 0.0
2018-Feb-20 16:30N 39°15' W 076°32'0 0.0
2018-Feb-20 16:00N 39°15' W 076°32'0 0.0
2018-Feb-20 15:30N 39°15' W 076°32'0 0.0
2018-Feb-20 15:00N 39°15' W 076°32'0 0.0
2018-Feb-20 14:30N 39°15' W 076°32'0 0.0
2018-Feb-20 14:00N 39°15' W 076°32'0 0.0
2018-Feb-20 13:30N 39°15' W 076°32'0 0.0
2018-Feb-20 13:00N 39°15' W 076°32'0 0.0
2018-Feb-20 12:30N 39°15' W 076°32'0 0.0
2018-Feb-20 12:00N 39°15' W 076°32'0 0.0
2018-Feb-20 11:27N 39°15' W 076°32'0 0.0
2018-Feb-20 11:00N 39°15' W 076°32'0 0.0
2018-Feb-20 10:30N 39°15' W 076°32'0 0.0
2018-Feb-20 10:00N 39°15' W 076°32'0 0.0
2018-Feb-20 09:30N 39°15' W 076°32'0 0.0
2018-Feb-20 09:00N 39°15' W 076°32'0 0.0
2018-Feb-20 08:30N 39°15' W 076°32'0 0.0
2018-Feb-20 08:00N 39°15' W 076°32'0 0.0
2018-Feb-20 07:30N 39°15' W 076°32'0 0.0
2018-Feb-20 07:00N 39°15' W 076°32'0 0.0
2018-Feb-20 06:30N 39°15' W 076°32'0 0.0
2018-Feb-20 06:00N 39°15' W 076°32'0 0.0
2018-Feb-20 05:30N 39°15' W 076°32'0 0.0
2018-Feb-20 04:57N 39°15' W 076°32'0 0.0
2018-Feb-20 04:30N 39°15' W 076°32'0 0.0
2018-Feb-20 04:00N 39°15' W 076°32'0 0.0
2018-Feb-20 03:27N 39°15' W 076°32'0 0.0
2018-Feb-20 03:00N 39°15' W 076°32'0 0.0
2018-Feb-20 02:30N 39°15' W 076°32'0 0.0
2018-Feb-20 02:00N 39°15' W 076°32'0 0.0
2018-Feb-20 01:30N 39°15' W 076°32'0 0.0
2018-Feb-20 00:57N 39°15' W 076°32'0 0.0
2018-Feb-20 00:30N 39°15' W 076°32'0 0.0
2018-Feb-20 00:00N 39°15' W 076°32'0 0.0
2018-Feb-19 23:30N 39°15' W 076°32'0 0.0
2018-Feb-19 23:00N 39°15' W 076°32'0 0.0
2018-Feb-19 22:30N 39°15' W 076°32'0 0.0
2018-Feb-19 22:00N 39°15' W 076°32'0 0.0
2018-Feb-19 21:24N 39°15' W 076°32'0 0.0
2018-Feb-19 21:00N 39°15' W 076°32'0 0.0
2018-Feb-19 20:30N 39°15' W 076°32'0 0.0
2018-Feb-19 20:00N 39°15' W 076°32'0 0.0
2018-Feb-19 19:30N 39°15' W 076°32'0 0.0
2018-Feb-19 19:00N 39°15' W 076°32'0 0.0
2018-Feb-19 18:30N 39°15' W 076°32'0 0.0
2018-Feb-19 18:00N 39°15' W 076°32'0 0.0
2018-Feb-19 17:30N 39°15' W 076°32'0 0.0
2018-Feb-19 17:00N 39°15' W 076°32'0 0.0
2018-Feb-19 16:27N 39°15' W 076°32'0 0.0
2018-Feb-19 16:00N 39°15' W 076°32'0 0.0
2018-Feb-19 15:30N 39°15' W 076°32'0 0.0
2018-Feb-19 15:00N 39°15' W 076°32'0 0.0
2018-Feb-19 14:30N 39°15' W 076°32'0 0.0
2018-Feb-19 14:00N 39°15' W 076°32'0 0.0
2018-Feb-19 13:30N 39°15' W 076°32'0 0.0
2018-Feb-19 13:00N 39°15' W 076°32'0 0.0
2018-Feb-19 12:30N 39°15' W 076°32'0 0.0
2018-Feb-19 12:00N 39°15' W 076°32'0 0.0
2018-Feb-19 11:27N 39°15' W 076°32'0 0.0
2018-Feb-19 11:00N 39°15' W 076°32'0 0.0
2018-Feb-19 10:30N 39°15' W 076°32'0 0.0
2018-Feb-19 10:00N 39°15' W 076°32'0 0.0
2018-Feb-19 09:30N 39°15' W 076°32'0 0.0
2018-Feb-19 09:00N 39°15' W 076°32'0 0.0
2018-Feb-19 08:24N 39°15' W 076°32'0 0.0
2018-Feb-19 08:00N 39°15' W 076°32'0 0.0
2018-Feb-19 07:30N 39°15' W 076°32'0 0.0
2018-Feb-19 07:00N 39°15' W 076°32'0 0.0
2018-Feb-19 06:30N 39°15' W 076°32'0 0.0
2018-Feb-19 06:00N 39°15' W 076°32'0 0.0
2018-Feb-19 05:30N 39°15' W 076°32'0 0.0
2018-Feb-19 04:57N 39°15' W 076°32'0 0.0
2018-Feb-19 04:30N 39°15' W 076°32'0 0.0
2018-Feb-19 04:00N 39°15' W 076°32'0 0.0
2018-Feb-19 03:21N 39°15' W 076°32'0 0.0
2018-Feb-19 02:57N 39°15' W 076°32'0 0.0
2018-Feb-19 02:30N 39°15' W 076°32'0 0.0
2018-Feb-19 01:57N 39°15' W 076°32'0 0.0
2018-Feb-19 01:27N 39°15' W 076°32'0 0.0
2018-Feb-19 01:00N 39°15' W 076°32'0 0.0
2018-Feb-19 00:24N 39°15' W 076°32'0 0.0
2018-Feb-19 00:00N 39°15' W 076°32'0 0.0
2018-Feb-18 23:18N 39°15' W 076°32'0 0.0
2018-Feb-18 23:00N 39°15' W 076°32'0 0.0
2018-Feb-18 22:30N 39°15' W 076°32'0 0.0
2018-Feb-18 22:00N 39°15' W 076°32'0 0.0
2018-Feb-18 21:24N 39°15' W 076°32'0 0.0
2018-Feb-18 21:00N 39°15' W 076°32'0 0.0
2018-Feb-18 20:30N 39°15' W 076°32'0 0.0
2018-Feb-18 20:00N 39°15' W 076°32'0 0.0
2018-Feb-18 19:30N 39°15' W 076°32'0 0.0
2018-Feb-18 19:00N 39°15' W 076°32'0 0.0
2018-Feb-18 18:30N 39°15' W 076°32'0 0.0
2018-Feb-18 18:00N 39°15' W 076°32'0 0.0
2018-Feb-18 17:30N 39°15' W 076°32'0 0.0
2018-Feb-18 17:00N 39°15' W 076°32'0 0.0
2018-Feb-18 16:30N 39°15' W 076°32'0 0.0
2018-Feb-18 16:00N 39°15' W 076°32'0 0.0
2018-Feb-18 15:30N 39°15' W 076°32'0 0.0
2018-Feb-18 15:00N 39°15' W 076°32'0 0.0
2018-Feb-18 14:30N 39°15' W 076°32'0 0.0
2018-Feb-18 14:00N 39°15' W 076°32'0 0.0
2018-Feb-18 13:27N 39°15' W 076°32'0 0.0
2018-Feb-18 13:00N 39°15' W 076°32'0 0.0
2018-Feb-18 12:27N 39°15' W 076°32'0 0.0
2018-Feb-18 12:00N 39°15' W 076°32'0 0.0
2018-Feb-18 11:30N 39°15' W 076°32'0 0.0
2018-Feb-18 11:00N 39°15' W 076°32'0 0.0
2018-Feb-18 10:30N 39°15' W 076°32'0 0.2
2018-Feb-18 10:00N 39°15' W 076°32'3 5.1
2018-Feb-18 09:30N 39°13' W 076°31'611.4
2018-Feb-18 09:00N 39°10' W 076°25'714.2
2018-Feb-18 08:30N 39°03' W 076°23'815.1
2018-Feb-18 08:00N 38°55' W 076°23'918.3
2018-Feb-18 07:30N 38°46' W 076°26'8617.8
2018-Feb-18 02:42N 37°22' W 076°05'618.6
2018-Feb-18 02:23N 37°16' W 076°07'818.2
2018-Feb-18 01:57N 37°09' W 076°09'818.6
2018-Feb-18 01:30N 37°02' W 076°03'713.5
2018-Feb-18 01:00N 36°57' W 075°58'4 8.8
2018-Feb-18 00:30N 36°54' W 075°53'  
2018-Feb-13 18:32N 25°53' W 079°29'116.7
2018-Feb-13 18:28N 25°52' W 079°29'816.2
2018-Feb-13 17:57N 25°44' W 079°29'  
Track history (hours):
 
Tides and Currents Weather Stations Pressure Air Temp Water Temp Dewpoint Dewpoint Depression Visibility Wind Speed Wind Dir Waves Ship Positions

Global Leader

Last reported at 2018-Feb-21 10:38 UTC. Time now 2018-Feb-21 23:25 UTC.
Position N 38°46' W 074°44'.

Length 189 m; draft 7.9 m.

Type: Cargo ship. MMSI: 311475000.

Date/timePositionNaut miles runAvg speedWind from/ knotsBaromVisibWave heightAir tempDewpointWater temp
2018-Feb-21 10:38N 38°46' W 074°44'1 8.2
2018-Feb-21 10:29N 38°46' W 074°46'9 8.7
2018-Feb-21 09:25N 38°46' W 074°58'12 9.4
2018-Feb-21 08:06N 38°56' W 075°06'317.5
2018-Feb-21 07:54N 38°59' W 075°08'816.5
2018-Feb-21 07:26N 39°06' W 075°12'715.2
2018-Feb-21 07:00N 39°12' W 075°17'612.7
2018-Feb-21 06:31N 39°17' W 075°22'612.1
2018-Feb-21 06:01N 39°22' W 075°27'612.3
2018-Feb-21 05:30N 39°26' W 075°32'611.3
2018-Feb-21 05:01N 39°32' W 075°33'3 6.0
2018-Feb-21 04:31N 39°33' W 075°36'4 8.4
2018-Feb-21 04:00N 39°33' W 075°42'4 8.8
2018-Feb-21 03:31N 39°32' W 075°47'4 8.9
2018-Feb-21 03:01N 39°31' W 075°53'510.0
2018-Feb-21 02:31N 39°28' W 075°58'612.1
2018-Feb-21 02:00N 39°24' W 076°03'815.1
2018-Feb-21 01:30N 39°20' W 076°12'714.1
2018-Feb-21 01:00N 39°13' W 076°15'612.2
2018-Feb-21 00:30N 39°09' W 076°21'713.4
2018-Feb-21 00:00N 39°12' W 076°29'4 8.2
2018-Feb-20 23:30N 39°14' W 076°33'1 1.7
2018-Feb-20 23:00N 39°15' W 076°32'0 0.0
2018-Feb-20 22:30N 39°15' W 076°32'0 0.0
2018-Feb-20 22:00N 39°15' W 076°32'0 0.0
2018-Feb-20 21:30N 39°15' W 076°32'0 0.0
2018-Feb-20 21:00N 39°15' W 076°32'0 0.0
2018-Feb-20 20:30N 39°15' W 076°32'0 0.0
2018-Feb-20 20:00N 39°15' W 076°32'0 0.0
2018-Feb-20 19:30N 39°15' W 076°32'0 0.0
2018-Feb-20 19:00N 39°15' W 076°32'0 0.0
2018-Feb-20 18:30N 39°15' W 076°32'0 0.0
2018-Feb-20 18:00N 39°15' W 076°32'0 0.0
2018-Feb-20 17:30N 39°15' W 076°32'0 0.0
2018-Feb-20 17:00N 39°15' W 076°32'0 0.0
2018-Feb-20 16:30N 39°15' W 076°32'0 0.0
2018-Feb-20 16:00N 39°15' W 076°32'0 0.0
2018-Feb-20 15:30N 39°15' W 076°32'0 0.0
2018-Feb-20 15:00N 39°15' W 076°32'0 0.0
2018-Feb-20 14:30N 39°15' W 076°32'0 0.0
2018-Feb-20 14:00N 39°15' W 076°32'0 0.0
2018-Feb-20 13:30N 39°15' W 076°32'0 0.0
2018-Feb-20 13:00N 39°15' W 076°32'0 0.0
2018-Feb-20 12:30N 39°15' W 076°32'0 0.0
2018-Feb-20 12:00N 39°15' W 076°32'0 0.0
2018-Feb-20 11:27N 39°15' W 076°32'0 0.0
2018-Feb-20 11:00N 39°15' W 076°32'0 0.0
2018-Feb-20 10:30N 39°15' W 076°32'0 0.0
2018-Feb-20 10:00N 39°15' W 076°32'0 0.0
2018-Feb-20 09:30N 39°15' W 076°32'0 0.0
2018-Feb-20 09:00N 39°15' W 076°32'0 0.0
2018-Feb-20 08:30N 39°15' W 076°32'0 0.0
2018-Feb-20 08:00N 39°15' W 076°32'0 0.0
2018-Feb-20 07:30N 39°15' W 076°32'0 0.0
2018-Feb-20 07:00N 39°15' W 076°32'0 0.0
2018-Feb-20 06:30N 39°15' W 076°32'0 0.0
2018-Feb-20 06:00N 39°15' W 076°32'0 0.0
2018-Feb-20 05:30N 39°15' W 076°32'0 0.0
2018-Feb-20 04:57N 39°15' W 076°32'0 0.0
2018-Feb-20 04:30N 39°15' W 076°32'0 0.0
2018-Feb-20 04:00N 39°15' W 076°32'0 0.0
2018-Feb-20 03:27N 39°15' W 076°32'0 0.0
2018-Feb-20 03:00N 39°15' W 076°32'0 0.0
2018-Feb-20 02:30N 39°15' W 076°32'0 0.0
2018-Feb-20 02:00N 39°15' W 076°32'0 0.0
2018-Feb-20 01:30N 39°15' W 076°32'0 0.0
2018-Feb-20 00:57N 39°15' W 076°32'0 0.0
2018-Feb-20 00:30N 39°15' W 076°32'0 0.0
2018-Feb-20 00:00N 39°15' W 076°32'0 0.0
2018-Feb-19 23:30N 39°15' W 076°32'0 0.0
2018-Feb-19 23:00N 39°15' W 076°32'0 0.0
2018-Feb-19 22:30N 39°15' W 076°32'0 0.0
2018-Feb-19 22:00N 39°15' W 076°32'0 0.0
2018-Feb-19 21:24N 39°15' W 076°32'0 0.0
2018-Feb-19 21:00N 39°15' W 076°32'0 0.0
2018-Feb-19 20:30N 39°15' W 076°32'0 0.0
2018-Feb-19 20:00N 39°15' W 076°32'0 0.0
2018-Feb-19 19:30N 39°15' W 076°32'0 0.0
2018-Feb-19 19:00N 39°15' W 076°32'0 0.0
2018-Feb-19 18:30N 39°15' W 076°32'0 0.0
2018-Feb-19 18:00N 39°15' W 076°32'0 0.0
2018-Feb-19 17:30N 39°15' W 076°32'0 0.0
2018-Feb-19 17:00N 39°15' W 076°32'0 0.0
2018-Feb-19 16:27N 39°15' W 076°32'0 0.0
2018-Feb-19 16:00N 39°15' W 076°32'0 0.0
2018-Feb-19 15:30N 39°15' W 076°32'0 0.0
2018-Feb-19 15:00N 39°15' W 076°32'0 0.0
2018-Feb-19 14:30N 39°15' W 076°32'0 0.0
2018-Feb-19 14:00N 39°15' W 076°32'0 0.0
2018-Feb-19 13:30N 39°15' W 076°32'0 0.0
2018-Feb-19 13:00N 39°15' W 076°32'0 0.0
2018-Feb-19 12:30N 39°15' W 076°32'0 0.0
2018-Feb-19 12:00N 39°15' W 076°32'0 0.0
2018-Feb-19 11:27N 39°15' W 076°32'0 0.0
2018-Feb-19 11:00N 39°15' W 076°32'0 0.0
2018-Feb-19 10:30N 39°15' W 076°32'0 0.0
2018-Feb-19 10:00N 39°15' W 076°32'0 0.0
2018-Feb-19 09:30N 39°15' W 076°32'0 0.0
2018-Feb-19 09:00N 39°15' W 076°32'0 0.0
2018-Feb-19 08:24N 39°15' W 076°32'0 0.0
2018-Feb-19 08:00N 39°15' W 076°32'0 0.0
2018-Feb-19 07:30N 39°15' W 076°32'0 0.0
2018-Feb-19 07:00N 39°15' W 076°32'0 0.0
2018-Feb-19 06:30N 39°15' W 076°32'0 0.0
2018-Feb-19 06:00N 39°15' W 076°32'0 0.0
2018-Feb-19 05:30N 39°15' W 076°32'0 0.0
2018-Feb-19 04:57N 39°15' W 076°32'0 0.0
2018-Feb-19 04:30N 39°15' W 076°32'0 0.0
2018-Feb-19 04:00N 39°15' W 076°32'0 0.0
2018-Feb-19 03:21N 39°15' W 076°32'0 0.0
2018-Feb-19 02:57N 39°15' W 076°32'0 0.0
2018-Feb-19 02:30N 39°15' W 076°32'0 0.0
2018-Feb-19 01:57N 39°15' W 076°32'0 0.0
2018-Feb-19 01:27N 39°15' W 076°32'0 0.0
2018-Feb-19 01:00N 39°15' W 076°32'0 0.0
2018-Feb-19 00:24N 39°15' W 076°32'0 0.0
2018-Feb-19 00:00N 39°15' W 076°32'0 0.0
2018-Feb-18 23:18N 39°15' W 076°32'0 0.0
2018-Feb-18 23:00N 39°15' W 076°32'0 0.0
2018-Feb-18 22:30N 39°15' W 076°32'0 0.0
2018-Feb-18 22:00N 39°15' W 076°32'0 0.0
2018-Feb-18 21:24N 39°15' W 076°32'0 0.0
2018-Feb-18 21:00N 39°15' W 076°32'0 0.0
2018-Feb-18 20:30N 39°15' W 076°32'0 0.0
2018-Feb-18 20:00N 39°15' W 076°32'0 0.0
2018-Feb-18 19:30N 39°15' W 076°32'0 0.0
2018-Feb-18 19:00N 39°15' W 076°32'0 0.0
2018-Feb-18 18:30N 39°15' W 076°32'0 0.0
2018-Feb-18 18:00N 39°15' W 076°32'0 0.0
2018-Feb-18 17:30N 39°15' W 076°32'0 0.0
2018-Feb-18 17:00N 39°15' W 076°32'0 0.0
2018-Feb-18 16:30N 39°15' W 076°32'0 0.0
2018-Feb-18 16:00N 39°15' W 076°32'0 0.0
2018-Feb-18 15:30N 39°15' W 076°32'0 0.0
2018-Feb-18 15:00N 39°15' W 076°32'0 0.0
2018-Feb-18 14:30N 39°15' W 076°32'0 0.0
2018-Feb-18 14:00N 39°15' W 076°32'0 0.0
2018-Feb-18 13:27N 39°15' W 076°32'0 0.0
2018-Feb-18 13:00N 39°15' W 076°32'0 0.0
2018-Feb-18 12:27N 39°15' W 076°32'0 0.0
2018-Feb-18 12:00N 39°15' W 076°32'0 0.0
2018-Feb-18 11:30N 39°15' W 076°32'0 0.0
2018-Feb-18 11:00N 39°15' W 076°32'0 0.0
2018-Feb-18 10:30N 39°15' W 076°32'0 0.2
2018-Feb-18 10:00N 39°15' W 076°32'3 5.1
2018-Feb-18 09:30N 39°13' W 076°31'611.4
2018-Feb-18 09:00N 39°10' W 076°25'714.2
2018-Feb-18 08:30N 39°03' W 076°23'815.1
2018-Feb-18 08:00N 38°55' W 076°23'918.3
2018-Feb-18 07:30N 38°46' W 076°26'8617.8
2018-Feb-18 02:42N 37°22' W 076°05'618.6
2018-Feb-18 02:23N 37°16' W 076°07'818.2
2018-Feb-18 01:57N 37°09' W 076°09'818.6
2018-Feb-18 01:30N 37°02' W 076°03'713.5
2018-Feb-18 01:00N 36°57' W 075°58'4 8.8
2018-Feb-18 00:30N 36°54' W 075°53'  
2018-Feb-13 18:32N 25°53' W 079°29'116.7
2018-Feb-13 18:28N 25°52' W 079°29'816.2
2018-Feb-13 17:57N 25°44' W 079°29'  

Dump ship's entire track history